Time;durP1;ratioP1;P1;durP2;ratioP2;P2;SDS_P1;SDS_P2;PMS_P1;PMS_P2;Temp;Humidity;BMP_temperature;BMP_pressure;BME280_temperature;BME280_humidity;BME280_pressure;Samples;Min_cycle;Max_cycle;Signal;HPM_P1;HPM_P2
2021/07/15 00:00:51;;;;;;;0.25;0.25;;;;;;;29.11;43.10;99671.94;5034104;28;20131;-53
2021/07/15 00:03:19;;;;;;;0.10;0.10;;;;;;;29.06;43.22;99660.97;5051578;28;20049;-51
2021/07/15 00:05:46;;;;;;;0.77;0.45;;;;;;;29.04;43.54;99674.63;5033949;28;20049;-53
2021/07/15 00:08:32;;;;;;;0.15;0.15;;;;;;;29.01;43.64;99680.41;5036495;28;20088;-53
2021/07/15 00:11:18;;;;;;;0.20;0.20;;;;;;;28.98;43.64;99675.44;5051400;28;20056;-53
2021/07/15 00:14:04;;;;;;;0.20;0.20;;;;;;;28.95;43.69;99668.63;5051428;28;20114;-52
2021/07/15 00:16:53;;;;;;;0.10;0.10;;;;;;;28.89;44.09;99664.06;5051458;28;20422;-50
2021/07/15 00:19:39;;;;;;;0.38;0.38;;;;;;;28.88;44.00;99665.13;5051184;28;20099;-50
2021/07/15 00:22:25;;;;;;;0.03;0.03;;;;;;;28.85;44.34;99665.53;5050954;28;20071;-53
2021/07/15 00:24:52;;;;;;;0.10;0.10;;;;;;;28.80;44.44;99662.63;5033616;28;20140;-56
2021/07/15 00:27:18;;;;;;;0.20;0.20;;;;;;;28.79;44.38;99677.09;5050891;28;20056;-57
2021/07/15 00:29:45;;;;;;;0.20;0.20;;;;;;;28.75;44.95;99672.34;5051097;28;20053;-55
2021/07/15 00:32:11;;;;;;;0.15;0.15;;;;;;;28.70;45.03;99667.56;5051189;28;20537;-58
2021/07/15 00:34:37;;;;;;;0.00;0.00;;;;;;;28.64;45.02;99668.34;5050988;28;20071;-55
2021/07/15 00:37:04;;;;;;;0.20;0.20;;;;;;;28.62;45.09;99673.13;5050920;28;20068;-57
2021/07/15 00:39:31;;;;;;;0.10;0.10;;;;;;;28.62;45.62;99681.19;5050149;28;20106;-57
2021/07/15 00:41:56;;;;;;;0.03;0.03;;;;;;;28.59;45.14;99676.22;5050575;28;20509;-57
2021/07/15 00:44:42;;;;;;;0.10;0.10;;;;;;;28.60;45.21;99669.78;5050727;28;20506;-56
2021/07/15 00:47:28;;;;;;;0.15;0.15;;;;;;;28.59;45.25;99670.00;5035737;28;20059;-57
2021/07/15 00:49:54;;;;;;;0.20;0.20;;;;;;;28.55;45.84;99663.38;5050730;28;20484;-55
2021/07/15 00:52:20;;;;;;;0.20;0.20;;;;;;;28.50;46.34;99660.50;5050427;28;20055;-58
2021/07/15 00:54:46;;;;;;;0.20;0.20;;;;;;;28.41;46.71;99657.16;5032970;28;20502;-56
2021/07/15 00:57:13;;;;;;;0.10;0.10;;;;;;;28.24;46.83;99645.97;5032915;28;20055;-58
2021/07/15 00:59:39;;;;;;;0.52;0.52;;;;;;;28.36;46.75;99659.63;5050307;28;20057;-57
2021/07/15 01:02:05;;;;;;;0.90;0.50;;;;;;;28.34;46.78;99650.94;5016579;28;20049;-57
2021/07/15 01:04:32;;;;;;;0.17;0.17;;;;;;;28.29;47.03;99653.41;5050266;28;20056;-58
2021/07/15 01:06:58;;;;;;;0.10;0.10;;;;;;;28.31;46.87;99652.19;5050552;28;20095;-55
2021/07/15 01:09:24;;;;;;;0.10;0.10;;;;;;;28.31;46.99;99651.34;5050090;28;20045;-56
2021/07/15 01:12:08;;;;;;;0.65;0.65;;;;;;;28.30;47.17;99655.09;5050411;28;20051;-55
2021/07/15 01:14:39;;;;;;;0.10;0.10;;;;;;;28.29;47.12;99656.94;5050099;28;20053;-57
2021/07/15 01:17:14;;;;;;;0.20;0.20;;;;;;;28.29;47.27;99651.56;5033015;28;20495;-57
2021/07/15 01:20:16;;;;;;;0.20;0.20;;;;;;;28.30;47.45;99655.09;5032478;28;20049;-57
2021/07/15 01:22:46;;;;;;;0.08;0.08;;;;;;;28.28;47.29;99651.75;5032136;28;20045;-58
2021/07/15 01:25:37;;;;;;;0.28;0.28;;;;;;;28.33;47.00;99649.31;5032877;28;20041;-58
2021/07/15 01:28:21;;;;;;;0.10;0.10;;;;;;;28.37;47.02;99655.94;5049989;28;20057;-56
2021/07/15 01:30:52;;;;;;;13.57;0.52;;;;;;;28.34;46.86;99624.09;5032327;28;20073;-56
2021/07/15 01:33:20;;;;;;;0.10;0.10;;;;;;;28.46;46.36;99641.28;5049980;28;20426;-54
2021/07/15 01:35:48;;;;;;;0.15;0.15;;;;;;;28.52;46.56;99642.31;5032116;28;20051;-56
2021/07/15 01:38:15;;;;;;;0.08;0.08;;;;;;;28.57;45.98;99637.97;5031954;28;20060;-56
2021/07/15 01:40:50;;;;;;;0.13;0.10;;;;;;;28.73;45.64;99629.53;5049559;28;20052;-56
2021/07/15 01:43:18;;;;;;;0.10;0.10;;;;;;;29.04;45.03;99636.97;5016223;28;20521;-56
2021/07/15 01:45:45;;;;;;;0.17;0.17;;;;;;;29.25;44.75;99639.47;5031802;28;20546;-56
2021/07/15 01:48:12;;;;;;;0.20;0.20;;;;;;;29.49;43.97;99635.25;5048439;28;20578;-57
2021/07/15 01:50:37;;;;;;;0.57;0.57;;;;;;;29.69;43.53;99630.66;5047935;28;20049;-56
2021/07/15 01:53:04;;;;;;;0.65;0.65;;;;;;;29.96;42.85;99639.47;5015263;28;20041;-59
2021/07/15 01:55:30;;;;;;;0.50;0.50;;;;;;;30.21;42.44;99636.84;5049532;28;20072;-58
2021/07/15 01:57:55;;;;;;;0.68;0.68;;;;;;;30.43;41.76;99635.50;5049446;28;20064;-57
2021/07/15 02:00:21;;;;;;;0.40;0.40;;;;;;;30.69;41.32;99640.72;5049679;28;20410;-58
2021/07/15 02:02:47;;;;;;;0.10;0.10;;;;;;;30.81;40.68;99614.69;5031488;28;20128;-58
2021/07/15 02:05:13;;;;;;;0.10;0.10;;;;;;;31.15;40.03;99636.81;5049632;28;20139;-58
2021/07/15 02:07:40;;;;;;;0.03;0.03;;;;;;;31.27;39.50;99625.06;5031536;28;20506;-58
2021/07/15 02:10:26;;;;;;;0.25;0.25;;;;;;;31.60;38.92;99635.53;5034679;28;20041;-58
2021/07/15 02:13:12;;;;;;;0.30;0.30;;;;;;;31.83;38.73;99624.88;5049553;28;20052;-58
2021/07/15 02:15:58;;;;;;;0.13;0.13;;;;;;;32.10;38.47;99632.66;5021003;28;20064;-58
2021/07/15 02:18:45;;;;;;;0.30;0.30;;;;;;;32.31;37.84;99638.38;5034259;28;20063;-58
2021/07/15 02:21:32;;;;;;;0.00;0.00;;;;;;;32.52;37.54;99626.22;5020897;28;20566;-59
2021/07/15 02:24:19;;;;;;;0.08;0.08;;;;;;;32.73;37.01;99620.28;5020887;28;20070;-53
2021/07/15 02:27:05;;;;;;;0.30;0.30;;;;;;;32.96;36.36;99620.28;5021260;28;20043;-53
2021/07/15 02:29:51;;;;;;;0.10;0.10;;;;;;;33.18;36.21;99622.47;5034525;28;20059;-56
2021/07/15 02:32:38;;;;;;;0.20;0.20;;;;;;;33.43;35.52;99633.84;5049082;28;20110;-53
2021/07/15 02:35:27;;;;;;;0.10;0.10;;;;;;;33.68;35.45;99634.41;5034450;28;20128;-52
2021/07/15 02:38:14;;;;;;;0.10;0.10;;;;;;;33.95;35.00;99627.38;5034193;28;20080;-53
2021/07/15 02:41:00;;;;;;;0.32;0.32;;;;;;;34.23;34.62;99626.56;5034224;28;20040;-52
2021/07/15 02:43:47;;;;;;;0.10;0.10;;;;;;;34.51;34.00;99623.84;5048758;28;20052;-53
2021/07/15 02:46:35;;;;;;;0.20;0.20;;;;;;;34.88;33.48;99631.53;5034324;28;20048;-54
2021/07/15 02:49:21;;;;;;;0.30;0.30;;;;;;;35.21;32.84;99634.22;5048998;28;20041;-55
2021/07/15 02:52:07;;;;;;;0.17;0.17;;;;;;;35.47;32.45;99627.28;5049239;28;20049;-54
2021/07/15 02:54:53;;;;;;;0.10;0.10;;;;;;;35.83;31.78;99648.38;5049113;28;20049;-54
2021/07/15 02:58:04;;;;;;;0.10;0.10;;;;;;;36.12;31.40;99645.50;5048747;28;20056;-54
2021/07/15 03:00:56;;;;;;;0.10;0.10;;;;;;;36.40;30.81;99640.63;5048842;28;20102;-54
2021/07/15 03:03:52;;;;;;;0.05;0.05;;;;;;;36.13;31.33;99641.72;5023355;28;20056;-55
2021/07/15 03:06:40;;;;;;;0.13;0.13;;;;;;;36.17;31.36;99638.22;5052578;28;20102;-54
2021/07/15 03:09:26;;;;;;;0.22;0.22;;;;;;;36.64;30.63;99630.28;5037882;28;20088;-55
2021/07/15 03:12:14;;;;;;;0.20;0.20;;;;;;;37.02;29.96;99634.66;5052720;28;20075;-57
2021/07/15 03:15:00;;;;;;;0.20;0.20;;;;;;;37.31;29.69;99629.66;5038003;28;20044;-55
2021/07/15 03:17:50;;;;;;;0.45;0.45;;;;;;;37.58;29.26;99622.22;5023446;28;20045;-54
2021/07/15 03:20:41;;;;;;;0.10;0.10;;;;;;;37.89;28.89;99623.97;5037575;28;20056;-56
2021/07/15 03:23:27;;;;;;;0.20;0.20;;;;;;;38.23;28.47;99626.25;5024164;28;20080;-56
2021/07/15 03:26:13;;;;;;;0.10;0.10;;;;;;;38.56;27.73;99625.78;5037611;28;20049;-57
2021/07/15 03:28:59;;;;;;;0.10;0.10;;;;;;;38.83;27.48;99618.16;5023869;28;20611;-56
2021/07/15 03:31:44;;;;;;;0.22;0.20;;;;;;;38.48;28.04;99637.25;5037361;28;20719;-56
2021/07/15 03:34:31;;;;;;;0.20;0.20;;;;;;;37.51;28.93;99621.63;5023438;28;20076;-58
2021/07/15 03:37:18;;;;;;;0.20;0.20;;;;;;;36.64;30.73;99630.28;5023526;28;20052;-57
2021/07/15 03:40:04;;;;;;;0.30;0.30;;;;;;;36.13;31.43;99637.06;5023713;28;20044;-57
2021/07/15 03:42:50;;;;;;;0.40;0.40;;;;;;;35.75;32.06;99640.69;5051566;28;20076;-57
2021/07/15 03:45:36;;;;;;;0.90;0.85;;;;;;;35.57;32.37;99640.97;5036928;28;20529;-55
2021/07/15 03:48:26;;;;;;;0.10;0.10;;;;;;;35.34;32.69;99638.50;5037152;28;20044;-57
2021/07/15 03:51:12;;;;;;;0.30;0.30;;;;;;;35.18;33.40;99644.78;5037504;28;20190;-57
2021/07/15 03:53:58;;;;;;;0.10;0.10;;;;;;;35.00;33.56;99641.22;5036960;28;20040;-55
2021/07/15 03:56:44;;;;;;;0.10;0.10;;;;;;;34.87;33.59;99651.59;5051500;28;20099;-54
2021/07/15 03:59:30;;;;;;;0.38;0.38;;;;;;;34.76;33.68;99649.78;5036834;28;20076;-55
2021/07/15 04:02:23;;;;;;;0.30;0.30;;;;;;;34.83;33.78;99653.97;5023164;28;20045;-54
2021/07/15 04:05:09;;;;;;;0.10;0.10;;;;;;;34.97;33.37;99649.03;5037660;28;20561;-54
2021/07/15 04:07:55;;;;;;;0.30;0.30;;;;;;;34.95;33.49;99654.69;5051155;28;20282;-56
2021/07/15 04:10:41;;;;;;;0.30;0.30;;;;;;;34.89;33.71;99650.28;5051254;28;20153;-55
2021/07/15 04:13:27;;;;;;;0.20;0.20;;;;;;;35.56;32.67;99642.06;5036571;28;20060;-54
2021/07/15 04:16:38;;;;;;;0.40;0.40;;;;;;;35.96;31.78;99639.06;5051186;28;20315;-56
2021/07/15 04:19:24;;;;;;;0.17;0.17;;;;;;;35.99;31.88;99658.41;5039205;28;20049;-54
2021/07/15 04:22:11;;;;;;;0.20;0.20;;;;;;;35.80;32.07;99648.91;5036662;28;20562;-55
2021/07/15 04:24:57;;;;;;;0.25;0.25;;;;;;;35.50;32.38;99657.44;5036345;28;20049;-55
2021/07/15 04:27:44;;;;;;;0.20;0.20;;;;;;;35.23;33.29;99653.00;5022348;28;20425;-54
2021/07/15 04:30:29;;;;;;;0.13;0.13;;;;;;;35.21;33.43;99650.50;5036571;28;20084;-55
2021/07/15 04:33:15;;;;;;;0.30;0.30;;;;;;;35.92;32.21;99652.31;5051114;28;20457;-54
2021/07/15 04:36:01;;;;;;;0.10;0.10;;;;;;;36.16;31.57;99633.84;5036217;28;20114;-55
2021/07/15 04:38:47;;;;;;;1.55;0.43;;;;;;;35.88;31.90;99632.16;5050515;28;20059;-56
2021/07/15 04:41:33;;;;;;;0.20;0.20;;;;;;;36.46;31.22;99636.03;5036096;28;20091;-55
2021/07/15 04:44:19;;;;;;;0.10;0.10;;;;;;;37.85;29.10;99628.31;5036102;28;20049;-53
2021/07/15 04:47:05;;;;;;;0.68;0.68;;;;;;;38.85;27.69;99620.59;5022440;28;20057;-54
2021/07/15 04:49:51;;;;;;;0.40;0.40;;;;;;;39.54;26.50;99620.75;5035430;28;20087;-53
2021/07/15 04:52:37;;;;;;;0.30;0.30;;;;;;;40.06;25.95;99626.53;5050480;28;20094;-54
2021/07/15 04:55:23;;;;;;;0.13;0.13;;;;;;;40.47;25.52;99626.31;5036173;28;20052;-50
2021/07/15 04:58:09;;;;;;;0.20;0.20;;;;;;;40.79;25.25;99615.66;5036716;28;20127;-56
2021/07/15 05:00:54;;;;;;;0.30;0.30;;;;;;;41.13;24.55;99629.34;5036351;28;20059;-55
2021/07/15 05:03:41;;;;;;;0.20;0.20;;;;;;;41.35;24.25;99623.31;5035353;28;20132;-57
2021/07/15 05:06:27;;;;;;;0.40;0.40;;;;;;;41.61;23.98;99624.69;5035948;28;20117;-58
2021/07/15 05:09:12;;;;;;;0.30;0.30;;;;;;;41.76;23.76;99619.00;5050508;28;20147;-57
2021/07/15 05:11:58;;;;;;;0.30;0.30;;;;;;;41.97;23.45;99619.56;5050099;28;20095;-55
2021/07/15 05:14:44;;;;;;;0.25;0.25;;;;;;;42.11;23.38;99619.66;5049900;28;20139;-57
2021/07/15 05:17:31;;;;;;;0.45;0.45;;;;;;;42.22;23.31;99616.47;5050367;28;20040;-57
2021/07/15 05:20:17;;;;;;;0.55;0.55;;;;;;;42.35;23.09;99607.50;5050286;28;20052;-56
2021/07/15 05:23:03;;;;;;;0.22;0.22;;;;;;;42.46;23.07;99608.97;5050210;28;20052;-56
2021/07/15 05:25:51;;;;;;;0.40;0.40;;;;;;;42.57;22.92;99602.16;5034966;28;20056;-55
2021/07/15 05:28:37;;;;;;;0.30;0.30;;;;;;;42.66;22.70;99602.34;5049651;28;20053;-55
2021/07/15 05:31:23;;;;;;;0.50;0.50;;;;;;;42.76;22.50;99604.91;5050065;28;20274;-57
2021/07/15 05:34:09;;;;;;;0.68;0.68;;;;;;;42.83;22.40;99597.09;5049983;28;20052;-56
2021/07/15 05:36:55;;;;;;;0.47;0.47;;;;;;;42.90;22.48;99586.50;5049673;28;20059;-56
2021/07/15 05:39:21;;;;;;;0.20;0.20;;;;;;;43.03;21.86;99596.72;5049780;28;20057;-56
2021/07/15 05:41:47;;;;;;;0.38;0.38;;;;;;;43.02;22.14;99592.38;5049490;28;20114;-55
2021/07/15 05:44:12;;;;;;;0.10;0.10;;;;;;;43.17;21.89;99593.19;5049838;28;20064;-57
2021/07/15 05:46:39;;;;;;;0.20;0.20;;;;;;;43.21;21.74;99596.94;5049557;28;20486;-56
2021/07/15 05:49:05;;;;;;;0.20;0.20;;;;;;;43.25;21.67;99592.47;5049564;28;20097;-55
2021/07/15 05:51:31;;;;;;;0.40;0.40;;;;;;;43.29;21.97;99597.06;5031983;28;20514;-55
2021/07/15 05:53:56;;;;;;;0.50;0.47;;;;;;;43.36;21.76;99599.41;5049240;28;20048;-56
2021/07/15 05:56:22;;;;;;;0.20;0.20;;;;;;;43.38;21.48;99592.50;5049710;28;20076;-56
2021/07/15 05:58:48;;;;;;;0.10;0.10;;;;;;;43.41;21.92;99591.06;5031539;28;20091;-55
2021/07/15 06:01:14;;;;;;;0.20;0.20;;;;;;;43.48;21.32;99597.81;5049692;28;20103;-55
2021/07/15 06:03:40;;;;;;;0.20;0.20;;;;;;;43.52;21.44;99598.81;5049247;28;20049;-57
2021/07/15 06:06:06;;;;;;;0.32;0.32;;;;;;;43.55;21.60;99592.72;5049646;28;20508;-55
2021/07/15 06:08:32;;;;;;;0.10;0.10;;;;;;;43.59;21.02;99590.94;5049617;28;20052;-55
2021/07/15 06:10:59;;;;;;;0.20;0.20;;;;;;;43.68;20.91;99588.31;5049263;28;20361;-57
2021/07/15 06:13:25;;;;;;;0.28;0.28;;;;;;;43.67;20.79;99572.91;5047995;28;20048;-56
2021/07/15 06:15:51;;;;;;;0.20;0.20;;;;;;;43.76;20.86;99581.22;5049271;28;20043;-56
2021/07/15 06:18:16;;;;;;;0.22;0.22;;;;;;;43.84;20.88;99583.28;5049296;28;20055;-56
2021/07/15 06:20:42;;;;;;;0.30;0.30;;;;;;;43.86;21.08;99564.53;5049256;28;20057;-57
2021/07/15 06:23:08;;;;;;;0.13;0.13;;;;;;;43.99;20.85;99575.50;5049214;28;20045;-59
2021/07/15 06:25:34;;;;;;;0.20;0.20;;;;;;;44.07;20.75;99574.78;5049346;28;20053;-57
2021/07/15 06:28:00;;;;;;;0.47;0.47;;;;;;;44.15;20.85;99572.38;5048933;28;20433;-56
2021/07/15 06:30:26;;;;;;;0.10;0.10;;;;;;;44.27;20.45;99570.75;5049433;28;20399;-56
2021/07/15 06:32:54;;;;;;;0.10;0.10;;;;;;;44.64;19.76;99569.53;5049110;28;20107;-56
2021/07/15 06:35:22;;;;;;;0.10;0.10;;;;;;;46.01;18.50;99567.25;5049093;28;20110;-55
2021/07/15 06:37:52;;;;;;;;;;;;;;;49.66;15.09;99573.19;5050677;28;20081;-56
2021/07/15 06:40:18;;;;;;;0.47;0.47;;;;;;;52.36;12.91;99560.22;5053203;28;19935;-56
2021/07/15 06:42:44;;;;;;;0.60;0.60;;;;;;;53.93;11.89;99563.16;5052780;28;20049;-57
2021/07/15 06:45:11;;;;;;;0.50;0.50;;;;;;;54.81;10.86;99563.38;5053261;28;20140;-57
2021/07/15 06:47:37;;;;;;;0.57;0.57;;;;;;;55.33;10.63;99558.59;5053174;28;20045;-57
2021/07/15 06:50:09;;;;;;;0.40;0.40;;;;;;;55.56;10.30;99559.16;5052813;28;20409;-57
2021/07/15 06:52:35;;;;;;;0.35;0.35;;;;;;;55.62;10.16;99553.97;5053061;28;20111;-57
2021/07/15 06:55:02;;;;;;;0.45;0.45;;;;;;;55.59;10.31;99549.94;5052575;28;20111;-55
2021/07/15 06:57:47;;;;;;;0.30;0.30;;;;;;;55.24;10.53;99553.31;5037912;28;20045;-55
2021/07/15 07:00:34;;;;;;;0.50;0.50;;;;;;;54.19;11.24;99547.50;5052939;28;20140;-56
2021/07/15 07:03:20;;;;;;;0.20;0.20;;;;;;;51.03;13.55;99538.13;5052807;28;20115;-54
2021/07/15 07:06:06;;;;;;;0.10;0.10;;;;;;;48.20;15.71;99544.38;5052519;28;20477;-57
2021/07/15 07:08:52;;;;;;;0.65;0.65;;;;;;;46.40;17.66;99524.00;5052494;28;20048;-55
2021/07/15 07:11:38;;;;;;;0.20;0.20;;;;;;;45.36;19.10;99538.88;5052703;28;20537;-56
2021/07/15 07:14:23;;;;;;;0.17;0.17;;;;;;;44.65;19.74;99535.34;5052578;28;20037;-55
2021/07/15 07:17:09;;;;;;;0.10;0.10;;;;;;;44.07;20.31;99516.94;5052718;28;20144;-56
2021/07/15 07:19:55;;;;;;;0.10;0.10;;;;;;;43.76;20.90;99527.00;5051965;28;20060;-56
2021/07/15 07:22:41;;;;;;;0.77;0.77;;;;;;;43.45;21.11;99537.09;5052438;28;20045;-55
2021/07/15 07:25:27;;;;;;;0.20;0.20;;;;;;;43.21;21.62;99536.47;5052387;28;20052;-55
2021/07/15 07:28:14;;;;;;;1.20;1.10;;;;;;;42.99;21.44;99532.50;5052245;28;20045;-56
2021/07/15 07:30:59;;;;;;;0.47;0.45;;;;;;;42.77;22.15;99537.84;5052332;28;20475;-58
2021/07/15 07:33:45;;;;;;;0.20;0.20;;;;;;;42.62;22.03;99529.88;5051966;28;20473;-57
2021/07/15 07:36:32;;;;;;;0.35;0.35;;;;;;;42.42;22.07;99519.22;5052623;28;20088;-54
2021/07/15 07:39:18;;;;;;;0.10;0.10;;;;;;;42.25;22.46;99528.03;5052457;28;20503;-55
2021/07/15 07:42:06;;;;;;;0.15;0.15;;;;;;;42.13;22.73;99524.09;5051671;28;20147;-57
2021/07/15 07:44:53;;;;;;;;;;;;;;;42.00;22.75;99522.91;5038291;28;20084;-55
2021/07/15 07:47:40;;;;;;;0.17;0.17;;;;;;;41.80;23.18;99518.56;5052445;28;20386;-57
2021/07/15 07:50:28;;;;;;;0.10;0.10;;;;;;;41.68;23.15;99518.16;5051153;28;20083;-57
2021/07/15 07:53:14;;;;;;;0.13;0.13;;;;;;;41.48;23.34;99504.75;5052053;28;20442;-57
2021/07/15 07:56:00;;;;;;;0.17;0.17;;;;;;;41.41;23.56;99516.06;5052249;28;20041;-56
2021/07/15 07:58:46;;;;;;;0.20;0.20;;;;;;;41.30;23.56;99520.00;5037138;28;20115;-54
2021/07/15 08:01:33;;;;;;;0.93;0.93;;;;;;;41.20;23.75;99517.41;5052414;28;20036;-56
2021/07/15 08:04:22;;;;;;;0.17;0.17;;;;;;;41.10;23.89;99511.25;5037415;28;20688;-58
2021/07/15 08:07:14;;;;;;;0.10;0.10;;;;;;;40.99;24.25;99514.09;5037249;28;20053;-57
2021/07/15 08:10:01;;;;;;;0.20;0.20;;;;;;;40.86;24.24;99509.28;5050884;28;20044;-57
2021/07/15 08:12:51;;;;;;;0.28;0.28;;;;;;;40.76;24.51;99508.56;5052030;28;20106;-58
2021/07/15 08:15:37;;;;;;;0.10;0.10;;;;;;;40.57;24.24;99494.81;5037578;28;20138;-58
2021/07/15 08:18:23;;;;;;;0.10;0.10;;;;;;;40.51;24.66;99509.63;5051774;28;20072;-54
2021/07/15 08:21:10;;;;;;;0.00;0.00;;;;;;;40.37;24.64;99511.41;5023292;28;20131;-54
2021/07/15 08:23:56;;;;;;;0.25;0.25;;;;;;;40.15;24.85;99491.91;5051298;28;20045;-57
2021/07/15 08:26:46;;;;;;;0.20;0.20;;;;;;;40.07;24.86;99502.31;5051503;28;20080;-58
2021/07/15 08:29:35;;;;;;;0.10;0.10;;;;;;;39.98;25.35;99501.31;5037193;28;20052;-56
2021/07/15 08:32:21;;;;;;;0.10;0.10;;;;;;;39.82;25.56;99491.56;5051610;28;20045;-55
2021/07/15 08:35:07;;;;;;;0.38;0.38;;;;;;;39.70;25.78;99491.09;5036792;28;20607;-52
2021/07/15 08:37:54;;;;;;;0.10;0.10;;;;;;;39.64;25.65;99503.13;5036645;28;20052;-56
2021/07/15 08:40:40;;;;;;;0.35;0.35;;;;;;;39.55;25.72;99504.84;5051183;28;20347;-60
2021/07/15 08:43:27;;;;;;;0.10;0.10;;;;;;;39.44;26.34;99503.25;5051665;28;20076;-58
2021/07/15 08:46:15;;;;;;;0.05;0.05;;;;;;;39.33;26.19;99501.69;5022969;28;20439;-55
2021/07/15 08:49:01;;;;;;;0.47;0.47;;;;;;;39.17;26.47;99491.88;5051156;28;20064;-57
2021/07/15 08:51:47;;;;;;;0.20;0.20;;;;;;;39.06;26.29;99491.94;5051233;28;20487;-60
2021/07/15 08:57:39;;;;;;;0.00;0.00;;;;;;;38.88;26.52;99478.88;5027856;28;20049;-59
2021/07/15 09:00:25;;;;;;;0.00;0.00;;;;;;;38.77;27.19;99469.06;5050230;28;20056;-59
2021/07/15 09:03:11;;;;;;;0.08;0.08;;;;;;;38.78;26.88;99481.59;5050526;28;20392;-59
2021/07/15 09:05:56;;;;;;;0.20;0.20;;;;;;;38.72;27.36;99481.88;5050222;28;20053;-59
2021/07/15 09:08:42;;;;;;;0.10;0.10;;;;;;;38.68;26.97;99480.81;5035528;28;20041;-58
2021/07/15 09:11:28;;;;;;;1.05;1.05;;;;;;;38.65;26.84;99478.66;5050544;28;20053;-58
2021/07/15 09:14:18;;;;;;;0.10;0.10;;;;;;;38.60;27.07;99471.28;5035371;28;20403;-59
2021/07/15 09:17:04;;;;;;;0.47;0.47;;;;;;;38.57;27.36;99460.91;5050328;28;20053;-59
2021/07/15 09:19:50;;;;;;;0.52;0.52;;;;;;;38.51;27.07;99468.31;5035218;28;20519;-59
2021/07/15 09:23:11;;;;;;;0.35;0.35;;;;;;;38.45;26.98;99468.59;5035496;28;20593;-58
2021/07/15 09:25:57;;;;;;;0.10;0.10;;;;;;;38.37;27.50;99447.31;5049972;28;20087;-59
2021/07/15 09:28:42;;;;;;;0.10;0.10;;;;;;;38.29;27.23;99432.25;5035256;28;20049;-58
2021/07/15 09:31:28;;;;;;;0.20;0.20;;;;;;;38.32;27.38;99439.91;5035484;28;20106;-58
2021/07/15 09:34:14;;;;;;;0.10;0.10;;;;;;;38.17;27.39;99415.38;5021378;28;20063;-58
2021/07/15 09:37:14;;;;;;;0.03;0.03;;;;;;;38.18;27.46;99410.75;5034938;28;20080;-58
2021/07/15 09:40:04;;;;;;;0.20;0.20;;;;;;;38.23;27.52;99417.00;5035691;28;20443;-58
2021/07/15 09:42:49;;;;;;;0.00;0.00;;;;;;;38.25;27.75;99424.91;5049886;28;20049;-58
2021/07/15 09:45:35;;;;;;;0.20;0.20;;;;;;;38.25;27.53;99409.38;5049877;28;20053;-59
2021/07/15 09:48:24;;;;;;;0.13;0.13;;;;;;;38.24;27.31;99415.09;5049795;28;20060;-59
2021/07/15 09:51:15;;;;;;;0.10;0.10;;;;;;;38.24;27.30;99407.72;5048809;28;20053;-59
2021/07/15 09:54:02;;;;;;;0.00;0.00;;;;;;;38.19;27.80;99398.75;5049495;28;20071;-59
2021/07/15 09:56:48;;;;;;;0.00;0.00;;;;;;;38.15;27.86;99393.03;5049942;28;20076;-58
2021/07/15 09:59:49;;;;;;;0.00;0.00;;;;;;;38.17;27.78;99392.72;5049650;28;20064;-58
2021/07/15 10:02:35;;;;;;;0.10;0.10;;;;;;;38.13;27.93;99388.91;5049767;28;20110;-58
2021/07/15 10:05:21;;;;;;;0.00;0.00;;;;;;;38.13;27.44;99391.63;5034783;28;20132;-60
2021/07/15 10:08:08;;;;;;;0.25;0.25;;;;;;;38.17;27.28;99392.72;5049501;28;20520;-58
2021/07/15 10:10:55;;;;;;;0.00;0.00;;;;;;;38.14;27.93;99393.28;5049303;28;20060;-59
2021/07/15 10:13:41;;;;;;;0.05;0.05;;;;;;;38.17;27.43;99388.09;5048732;28;20096;-59
2021/07/15 10:16:37;;;;;;;0.10;0.10;;;;;;;38.16;27.28;99388.34;5034703;28;20192;-58
2021/07/15 10:19:25;;;;;;;0.00;0.00;;;;;;;38.16;27.21;99380.16;5049286;28;20052;-58
2021/07/15 10:22:11;;;;;;;0.10;0.10;;;;;;;38.18;27.12;99380.72;5034713;28;20136;-59
2021/07/15 10:24:57;;;;;;;0.13;0.13;;;;;;;38.15;27.58;99384.00;5049121;28;20049;-59
2021/07/15 10:27:42;;;;;;;0.10;0.10;;;;;;;38.10;27.44;99389.47;5049436;28;20053;-59
2021/07/15 10:30:28;;;;;;;0.10;0.10;;;;;;;38.05;27.44;99388.41;5049247;28;20514;-59
2021/07/15 10:33:14;;;;;;;0.00;0.00;;;;;;;38.12;27.00;99393.56;5049147;28;20137;-58
2021/07/15 10:36:09;;;;;;;0.10;0.10;;;;;;;38.12;26.96;99390.84;5020531;28;20048;-53
2021/07/15 10:39:10;;;;;;;0.10;0.10;;;;;;;38.24;27.11;99387.81;5038204;28;20057;-57
2021/07/15 10:41:58;;;;;;;0.05;0.05;;;;;;;38.30;26.65;99383.97;5048058;28;20048;-58
2021/07/15 10:44:45;;;;;;;0.20;0.17;;;;;;;38.28;26.51;99387.00;5049901;28;20633;-53
2021/07/15 10:47:31;;;;;;;0.00;0.00;;;;;;;38.14;26.55;99380.47;5049951;28;20399;-57
2021/07/15 10:50:17;;;;;;;0.20;0.20;;;;;;;37.97;26.98;99380.75;5034997;28;20102;-57
2021/07/15 10:53:03;;;;;;;0.03;0.03;;;;;;;37.73;27.19;99374.19;5049373;28;20074;-57
2021/07/15 10:55:52;;;;;;;0.30;0.30;;;;;;;37.54;27.22;99387.53;5035041;28;20053;-55
2021/07/15 10:58:44;;;;;;;0.10;0.10;;;;;;;37.36;27.56;99400.84;5034871;28;20511;-56
2021/07/15 11:01:36;;;;;;;0.20;0.20;;;;;;;37.16;27.90;99392.63;5049804;28;20486;-55
2021/07/15 11:04:42;;;;;;;0.20;0.20;;;;;;;36.98;27.92;99411.06;5049539;28;20049;-55
2021/07/15 11:07:33;;;;;;;0.20;0.20;;;;;;;36.80;27.94;99427.88;5049713;28;20051;-58
2021/07/15 11:10:21;;;;;;;0.05;0.05;;;;;;;36.62;28.15;99432.97;5049058;28;20420;-56
2021/07/15 11:13:09;;;;;;;0.10;0.10;;;;;;;36.46;28.10;99434.72;5020832;28;20417;-55
2021/07/15 11:15:55;;;;;;;0.03;0.03;;;;;;;36.32;28.56;99436.28;5034495;28;20049;-57
2021/07/15 11:18:50;;;;;;;0.10;0.10;;;;;;;36.17;28.74;99447.03;5049342;28;20461;-56
2021/07/15 11:21:36;;;;;;;0.10;0.10;;;;;;;36.01;28.87;99441.44;5034334;28;20458;-58
2021/07/15 11:24:28;;;;;;;0.10;0.10;;;;;;;35.89;29.01;99454.41;5051378;28;20076;-56
2021/07/15 11:27:40;;;;;;;0.20;0.20;;;;;;;35.83;29.20;99465.50;5052924;28;20491;-55
2021/07/15 11:30:35;;;;;;;0.08;0.08;;;;;;;35.78;29.03;99460.81;5038451;28;20131;-54
2021/07/15 11:33:21;;;;;;;0.10;0.10;;;;;;;35.74;28.86;99470.56;5052843;28;20099;-55
2021/07/15 11:36:12;;;;;;;0.22;0.22;;;;;;;35.62;29.00;99488.91;5052269;28;20389;-58
2021/07/15 11:38:59;;;;;;;0.00;0.00;;;;;;;35.51;29.25;99509.69;5023831;28;20107;-56
2021/07/15 11:41:50;;;;;;;0.10;0.10;;;;;;;35.43;29.45;99503.88;5052833;28;20141;-58
2021/07/15 11:45:17;;;;;;;0.00;0.00;;;;;;;35.25;29.63;99493.34;5052666;28;20053;-57
2021/07/15 11:48:03;;;;;;;0.08;0.08;;;;;;;35.11;29.93;99498.34;5032948;28;20049;-54
2021/07/15 11:50:51;;;;;;;0.10;0.10;;;;;;;34.92;30.00;99500.50;5037839;28;20526;-55
2021/07/15 11:53:37;;;;;;;0.00;0.00;;;;;;;34.73;30.42;99537.13;5052646;28;20053;-54
2021/07/15 11:56:27;;;;;;;0.00;0.00;;;;;;;34.56;30.61;99552.56;5023800;28;20473;-58
2021/07/15 11:59:43;;;;;;;0.00;0.00;;;;;;;34.38;31.05;99552.81;5037241;28;20305;-57
2021/07/15 12:02:39;;;;;;;0.17;0.17;;;;;;;34.22;31.11;99537.38;5026969;28;20090;-58
2021/07/15 12:05:36;;;;;;;0.00;0.00;;;;;;;34.07;31.61;99545.19;5052312;28;20044;-54
2021/07/15 12:08:22;;;;;;;0.00;0.00;;;;;;;33.92;31.66;99532.19;5051520;28;20135;-52
2021/07/15 12:11:08;;;;;;;0.10;0.10;;;;;;;33.85;31.92;99518.78;5036503;28;20059;-55
2021/07/15 12:13:54;;;;;;;0.08;0.08;;;;;;;33.79;32.04;99510.81;5023162;28;20053;-57
2021/07/15 12:16:41;;;;;;;0.20;0.20;;;;;;;33.73;32.60;99506.38;5036653;28;20586;-54
2021/07/15 12:19:27;;;;;;;0.00;0.00;;;;;;;33.66;32.52;99506.53;5052022;28;20063;-54
2021/07/15 12:22:13;;;;;;;0.15;0.15;;;;;;;33.55;32.89;99501.94;5037324;28;20504;-55
2021/07/15 12:25:20;;;;;;;0.00;0.00;;;;;;;33.49;32.98;99524.56;5037335;28;20045;-57
2021/07/15 12:28:20;;;;;;;0.00;0.00;;;;;;;33.38;33.31;99537.06;5039278;28;20048;-50
2021/07/15 12:31:09;;;;;;;0.10;0.10;;;;;;;33.30;33.87;99525.81;5037440;28;20053;-55
2021/07/15 12:33:55;;;;;;;0.00;0.00;;;;;;;33.22;34.08;99505.34;5052487;28;20084;-54
2021/07/15 12:36:51;;;;;;;0.13;0.13;;;;;;;33.10;34.16;99490.19;5023550;28;20139;-55
2021/07/15 12:39:38;;;;;;;0.00;0.00;;;;;;;33.00;34.47;99477.25;5025702;28;20075;-54
2021/07/15 12:42:36;;;;;;;0.03;0.03;;;;;;;32.97;34.76;99475.00;5023361;28;20449;-58
2021/07/15 12:45:24;;;;;;;0.00;0.00;;;;;;;32.91;34.94;99465.97;5023059;28;20055;-58
2021/07/15 12:48:13;;;;;;;0.00;0.00;;;;;;;32.85;35.51;99449.88;5023115;28;20052;-56
2021/07/15 12:50:58;;;;;;;;;;;;;;;32.83;35.27;99451.97;5036280;28;20518;-56